Time;durP1;ratioP1;P1;durP2;ratioP2;P2;SDS_P1;SDS_P2;PMS_P1;PMS_P2;Temp;Humidity;BMP_temperature;BMP_pressure;BME280_temperature;BME280_humidity;BME280_pressure;Samples;Min_cycle;Max_cycle;Signal;HPM_P1;HPM_P2
2021/05/05 00:01:05;;;;;;;3.77;3.07;;;11.10;99.90;;;;;;4976119;28;20610;-75
2021/05/05 00:03:31;;;;;;;2.20;2.10;;;11.00;99.90;;;;;;4976479;28;20650;-75
2021/05/05 00:05:57;;;;;;;2.67;2.47;;;11.10;99.90;;;;;;4976380;28;20175;-75
2021/05/05 00:08:24;;;;;;;2.57;2.37;;;11.00;99.90;;;;;;4975912;28;20180;-75
2021/05/05 00:10:50;;;;;;;4.33;3.37;;;10.90;99.90;;;;;;4976310;28;20203;-75
2021/05/05 00:13:16;;;;;;;2.90;2.67;;;10.90;99.90;;;;;;4976257;28;20578;-75
2021/05/05 00:15:42;;;;;;;2.87;2.57;;;10.90;99.90;;;;;;4976494;28;20211;-76
2021/05/05 00:18:08;;;;;;;3.17;2.77;;;10.80;99.90;;;;;;4976233;28;20181;-76
2021/05/05 00:20:35;;;;;;;3.80;2.80;;;10.80;99.90;;;;;;4975258;28;20211;-76
2021/05/05 00:23:01;;;;;;;3.03;2.53;;;;;;;;;;4975949;28;20654;-76
2021/05/05 00:25:27;;;;;;;3.60;2.37;;;10.70;99.90;;;;;;4976385;28;20268;-76
2021/05/05 00:27:53;;;;;;;3.20;2.90;;;10.70;99.90;;;;;;4976195;28;20194;-76
2021/05/05 00:30:21;;;;;;;2.60;2.40;;;10.80;99.90;;;;;;4975637;28;20200;-76
2021/05/05 00:32:47;;;;;;;3.37;2.47;;;10.70;99.90;;;;;;4969326;28;20188;-75
2021/05/05 00:35:13;;;;;;;3.43;2.53;;;10.90;99.90;;;;;;4974596;28;20183;-75
2021/05/05 00:37:40;;;;;;;3.27;2.60;;;10.80;99.90;;;;;;4975798;28;20194;-75
2021/05/05 00:40:07;;;;;;;3.10;2.80;;;10.80;99.90;;;;;;4975195;28;20208;-75
2021/05/05 00:42:34;;;;;;;2.90;2.70;;;10.70;99.90;;;;;;4975514;28;20185;-75
2021/05/05 00:45:09;;;;;;;3.07;2.80;;;10.70;99.90;;;;;;4975431;28;20179;-75
2021/05/05 00:47:35;;;;;;;3.30;3.03;;;10.60;99.90;;;;;;4975859;28;20181;-75
2021/05/05 00:50:03;;;;;;;4.90;3.20;;;10.60;99.90;;;;;;4975255;28;20290;-75
2021/05/05 00:52:29;;;;;;;3.03;2.83;;;10.50;99.90;;;;;;4974095;28;20203;-75
2021/05/05 00:54:54;;;;;;;3.97;3.40;;;10.50;99.90;;;;;;4975274;28;20228;-75
2021/05/05 00:57:21;;;;;;;3.10;2.90;;;10.60;99.90;;;;;;4975229;28;20175;-75
2021/05/05 00:59:48;;;;;;;3.07;2.87;;;10.60;99.90;;;;;;4975343;28;20306;-75
2021/05/05 01:02:14;;;;;;;3.00;2.80;;;10.60;99.90;;;;;;4975295;28;20642;-75
2021/05/05 01:04:40;;;;;;;4.23;3.00;;;10.60;99.90;;;;;;4974076;28;20187;-75
2021/05/05 01:07:06;;;;;;;3.47;3.00;;;10.70;99.90;;;;;;4971232;28;20786;-75
2021/05/05 01:09:32;;;;;;;3.43;3.00;;;10.60;99.90;;;;;;4974923;28;20255;-75
2021/05/05 01:11:57;;;;;;;3.17;2.97;;;10.70;99.90;;;;;;4973466;28;20593;-75
2021/05/05 01:14:24;;;;;;;3.23;2.60;;;10.60;99.90;;;;;;4975345;28;20262;-75
2021/05/05 01:16:51;;;;;;;2.80;2.60;;;10.60;99.90;;;;;;4957722;28;20207;-76
2021/05/05 01:19:18;;;;;;;2.93;2.60;;;10.70;99.90;;;;;;4975086;28;20620;-75
2021/05/05 01:21:43;;;;;;;4.37;3.10;;;10.70;99.90;;;;;;4973457;28;20211;-75
2021/05/05 01:24:10;;;;;;;3.40;2.83;;;10.80;99.90;;;;;;4974945;28;20654;-76
2021/05/05 01:26:37;;;;;;;3.40;2.70;;;10.80;99.90;;;;;;4974942;28;20379;-74
2021/05/05 01:29:03;;;;;;;2.83;2.63;;;10.80;99.90;;;;;;4973650;28;20179;-75
2021/05/05 01:31:29;;;;;;;2.80;2.60;;;10.70;99.90;;;;;;4967356;28;20296;-75
2021/05/05 01:33:56;;;;;;;3.67;3.13;;;10.70;99.90;;;;;;4975010;28;20204;-75
2021/05/05 01:36:27;;;;;;;4.17;2.90;;;10.80;99.90;;;;;;4973460;28;20195;-75
2021/05/05 01:38:53;;;;;;;2.97;2.77;;;10.70;99.90;;;;;;4974875;28;20180;-75
2021/05/05 01:41:20;;;;;;;4.17;3.00;;;10.70;99.90;;;;;;4974401;28;20689;-75
2021/05/05 01:43:46;;;;;;;2.93;2.73;;;10.60;99.90;;;;;;4974335;28;20188;-75
2021/05/05 01:46:12;;;;;;;4.13;2.80;;;10.60;99.90;;;;;;4973550;28;20187;-75
2021/05/05 01:48:38;;;;;;;3.17;2.93;;;10.50;99.90;;;;;;4972476;28;20187;-75
2021/05/05 01:51:04;;;;;;;3.90;3.40;;;10.50;99.90;;;;;;4971290;28;20233;-75
2021/05/05 01:53:31;;;;;;;4.77;3.17;;;10.40;99.90;;;;;;4972831;28;20187;-75
2021/05/05 01:55:56;;;;;;;3.20;2.90;;;10.30;99.90;;;;;;4971116;28;20598;-75
2021/05/05 01:58:22;;;;;;;3.20;3.00;;;10.30;99.90;;;;;;4971903;28;20728;-75
2021/05/05 02:00:48;;;;;;;3.00;2.80;;;10.30;99.90;;;;;;4974877;28;20270;-75
2021/05/05 02:03:14;;;;;;;4.00;3.03;;;10.20;99.90;;;;;;4973220;28;20175;-75
2021/05/05 02:05:40;;;;;;;4.10;3.00;;;10.10;99.90;;;;;;4973605;28;20641;-75
2021/05/05 02:08:06;;;;;;;3.63;3.33;;;10.10;99.90;;;;;;4974342;28;20254;-75
2021/05/05 02:10:32;;;;;;;3.73;3.23;;;10.10;99.90;;;;;;4974652;28;20203;-74
2021/05/05 02:12:58;;;;;;;2.90;2.70;;;10.20;99.90;;;;;;4974692;28;20187;-76
2021/05/05 02:15:24;;;;;;;2.80;2.60;;;10.20;99.90;;;;;;4972830;28;20713;-74
2021/05/05 02:17:50;;;;;;;3.07;2.87;;;10.20;99.90;;;;;;4974180;28;20202;-75
2021/05/05 02:20:19;;;;;;;4.53;2.83;;;10.30;99.90;;;;;;4974141;28;20216;-75
2021/05/05 02:22:47;;;;;;;2.83;2.53;;;10.40;99.90;;;;;;4974381;28;20270;-75
2021/05/05 02:25:13;;;;;;;2.80;2.53;;;10.30;99.90;;;;;;4974255;28;20215;-75
2021/05/05 02:27:40;;;;;;;2.60;2.40;;;10.40;99.90;;;;;;4974525;28;20201;-75
2021/05/05 02:30:09;;;;;;;2.80;2.30;;;10.20;99.90;;;;;;4973949;28;20210;-75
2021/05/05 02:32:36;;;;;;;2.37;2.17;;;10.20;99.90;;;;;;4967035;28;20181;-75
2021/05/05 02:35:04;;;;;;;2.60;2.40;;;10.30;99.90;;;;;;4974181;28;20180;-75
2021/05/05 02:37:30;;;;;;;2.67;2.27;;;10.20;99.90;;;;;;4974015;28;20190;-75
2021/05/05 02:39:56;;;;;;;2.53;2.30;;;10.10;99.90;;;;;;4972369;28;20200;-75
2021/05/05 02:42:22;;;;;;;2.73;2.53;;;10.20;99.90;;;;;;4974284;28;20179;-75
2021/05/05 02:44:49;;;;;;;2.60;2.33;;;10.30;99.90;;;;;;4975883;28;20532;-75
2021/05/05 02:47:21;;;;;;;2.57;2.13;;;10.30;99.90;;;;;;4973717;28;20255;-75
2021/05/05 02:49:48;;;;;;;2.00;1.90;;;10.20;99.90;;;;;;4976389;28;20663;-75
2021/05/05 02:52:14;;;;;;;2.57;2.00;;;10.20;99.90;;;;;;5026799;22;20236;-78
2021/05/05 02:54:40;;;;;;;2.30;2.10;;;10.20;99.90;;;;;;5060004;28;20181;-77
2021/05/05 02:57:06;;;;;;;2.80;1.90;;;10.10;99.90;;;;;;5060128;28;20287;-79
2021/05/05 02:59:32;;;;;;;1.90;1.80;;;10.00;99.90;;;;;;5060068;28;20653;-79
2021/05/05 03:01:58;;;;;;;1.70;1.60;;;9.90;99.90;;;;;;5038574;28;20358;-78
2021/05/05 03:04:25;;;;;;;2.10;1.83;;;10.00;99.90;;;;;;5060287;28;20647;-78
2021/05/05 03:06:52;;;;;;;2.70;2.50;;;10.00;99.90;;;;;;5060141;28;20172;-78
2021/05/05 03:09:20;;;;;;;2.30;2.20;;;10.00;99.90;;;;;;5041860;28;20236;-77
2021/05/05 03:11:46;;;;;;;3.47;2.37;;;10.00;99.90;;;;;;5059140;28;20203;-77
2021/05/05 03:14:12;;;;;;;2.87;2.67;;;9.90;99.90;;;;;;5059531;28;20187;-78
2021/05/05 03:16:39;;;;;;;3.03;2.57;;;9.90;99.90;;;;;;5041308;28;20179;-78
2021/05/05 03:19:05;;;;;;;2.73;2.53;;;9.80;99.90;;;;;;5059019;28;20179;-77
2021/05/05 03:21:31;;;;;;;2.87;2.67;;;9.80;99.90;;;;;;5042013;28;20208;-78
2021/05/05 03:23:57;;;;;;;2.77;2.57;;;9.80;99.90;;;;;;5041214;28;20177;-79
2021/05/05 03:26:22;;;;;;;2.90;2.70;;;9.80;99.90;;;;;;5059793;28;20226;-78
2021/05/05 03:28:48;;;;;;;2.40;2.20;;;10.00;99.90;;;;;;5060420;28;20231;-78
2021/05/05 03:31:14;;;;;;;2.30;2.20;;;10.00;99.90;;;;;;5034183;28;20228;-78
2021/05/05 03:33:39;;;;;;;2.53;2.33;;;10.00;99.90;;;;;;5059777;28;20181;-79
2021/05/05 03:36:06;;;;;;;2.10;2.00;;;9.90;99.90;;;;;;5060854;28;20745;-77
2021/05/05 03:38:32;;;;;;;2.13;2.03;;;9.80;99.90;;;;;;5059678;28;20194;-78
2021/05/05 03:40:58;;;;;;;1.93;1.83;;;9.90;99.90;;;;;;5042058;28;20210;-78
2021/05/05 03:43:23;;;;;;;1.97;1.87;;;9.80;99.90;;;;;;5060396;28;20173;-78
2021/05/05 03:45:49;;;;;;;1.73;1.63;;;9.70;99.90;;;;;;5041610;28;20192;-78
2021/05/05 03:48:15;;;;;;;2.13;1.93;;;9.80;99.90;;;;;;5059680;28;20177;-78
2021/05/05 03:50:42;;;;;;;1.87;1.53;;;9.80;99.90;;;;;;5060203;28;20187;-78
2021/05/05 03:53:10;;;;;;;0.90;0.70;;;9.80;99.90;;;;;;5042933;28;20569;-78
2021/05/05 03:55:36;;;;;;;0.40;0.40;;;9.70;99.90;;;;;;5042004;28;20178;-77
2021/05/05 03:58:02;;;;;;;0.27;0.27;;;9.90;99.90;;;;;;5059834;28;20176;-79
2021/05/05 04:00:28;;;;;;;0.37;0.27;;;9.70;99.90;;;;;;5037095;28;20205;-77
2021/05/05 04:02:53;;;;;;;0.10;0.10;;;9.70;99.90;;;;;;5032471;28;20249;-78
2021/05/05 04:05:19;;;;;;;0.43;0.20;;;9.70;99.90;;;;;;5021753;28;20196;-77
2021/05/05 04:07:45;;;;;;;0.57;0.20;;;9.60;99.90;;;;;;5034788;28;20207;-77
2021/05/05 04:10:11;;;;;;;0.50;0.20;;;9.60;99.90;;;;;;5056988;28;20173;-79
2021/05/05 04:12:40;;;;;;;0.10;0.10;;;9.40;99.90;;;;;;5039577;28;20204;-78
2021/05/05 04:15:07;;;;;;;0.73;0.20;;;9.20;99.90;;;;;;5058944;28;20168;-79
2021/05/05 04:17:33;;;;;;;0.10;0.10;;;9.00;99.90;;;;;;5045588;28;20181;-78
2021/05/05 04:19:59;;;;;;;1.03;0.20;;;9.10;99.90;;;;;;5057053;28;20579;-78
2021/05/05 04:22:25;;;;;;;0.17;0.17;;;8.90;99.90;;;;;;5058351;28;20198;-79
2021/05/05 04:24:52;;;;;;;0.73;0.20;;;8.80;99.90;;;;;;5057858;28;20171;-79
2021/05/05 04:27:19;;;;;;;0.23;0.23;;;8.70;99.90;;;;;;5056017;28;20176;-78
2021/05/05 04:29:45;;;;;;;0.20;0.20;;;8.80;99.90;;;;;;5041759;28;20627;-78
2021/05/05 04:32:12;;;;;;;0.13;0.13;;;8.70;99.90;;;;;;5025263;28;20929;-79
2021/05/05 04:34:40;;;;;;;1.00;0.20;;;8.60;99.90;;;;;;5058762;28;20600;-78
2021/05/05 04:37:06;;;;;;;1.20;0.20;;;8.70;99.90;;;;;;5058045;28;20171;-78
2021/05/05 04:39:33;;;;;;;0.67;0.20;;;8.60;99.90;;;;;;5056267;28;20660;-78
2021/05/05 04:41:58;;;;;;;0.50;0.20;;;8.60;99.90;;;;;;5039829;28;20202;-77
2021/05/05 04:44:24;;;;;;;0.63;0.20;;;8.40;99.90;;;;;;5058341;28;20302;-78
2021/05/05 04:46:51;;;;;;;1.03;0.23;;;8.40;99.90;;;;;;5058174;28;20182;-78
2021/05/05 04:49:17;;;;;;;0.30;0.20;;;8.40;99.90;;;;;;5040971;28;20180;-78
2021/05/05 04:51:42;;;;;;;0.20;0.20;;;8.30;99.90;;;;;;5057351;28;20212;-78
2021/05/05 04:54:08;;;;;;;1.03;0.20;;;8.30;99.90;;;;;;5058157;28;20250;-79
2021/05/05 04:56:35;;;;;;;0.10;0.10;;;8.20;99.90;;;;;;5058396;28;20179;-78
2021/05/05 04:59:02;;;;;;;0.10;0.10;;;8.20;99.90;;;;;;5058232;28;20240;-79
2021/05/05 05:01:29;;;;;;;0.10;0.10;;;8.30;99.90;;;;;;5058102;28;20206;-78
2021/05/05 05:03:54;;;;;;;0.40;0.10;;;8.30;99.90;;;;;;5058637;28;20256;-78
2021/05/05 05:06:20;;;;;;;1.03;0.20;;;8.30;99.90;;;;;;5052964;28;20167;-78
2021/05/05 05:08:46;;;;;;;0.30;0.30;;;8.20;99.90;;;;;;5040189;28;20192;-78
2021/05/05 05:11:13;;;;;;;0.17;0.10;;;8.10;99.90;;;;;;5051138;28;20199;-78
2021/05/05 05:13:39;;;;;;;0.10;0.10;;;7.90;99.90;;;;;;5056660;28;20202;-78
2021/05/05 05:16:05;;;;;;;0.10;0.10;;;7.90;99.90;;;;;;5040002;28;20258;-78
2021/05/05 05:18:32;;;;;;;0.10;0.10;;;7.90;99.90;;;;;;5033025;28;20731;-78
2021/05/05 05:20:58;;;;;;;0.17;0.17;;;7.90;99.90;;;;;;5051105;28;20187;-78
2021/05/05 05:23:23;;;;;;;0.10;0.10;;;7.90;99.90;;;;;;5024387;28;20278;-78
2021/05/05 05:25:49;;;;;;;0.10;0.10;;;7.90;99.90;;;;;;5057504;28;20640;-78
2021/05/05 05:28:15;;;;;;;0.33;0.10;;;7.80;99.90;;;;;;5057618;28;20244;-78
2021/05/05 05:30:40;;;;;;;0.13;0.13;;;7.90;99.90;;;;;;5051837;28;20711;-78
2021/05/05 05:33:06;;;;;;;0.20;0.20;;;7.90;99.90;;;;;;5021354;28;20195;-78
2021/05/05 05:35:32;;;;;;;0.10;0.10;;;7.90;99.90;;;;;;5033701;28;20181;-78
2021/05/05 05:37:58;;;;;;;0.20;0.20;;;8.10;99.90;;;;;;5047341;28;20178;-78
2021/05/05 05:40:24;;;;;;;1.03;0.17;;;8.00;99.90;;;;;;5056479;28;20189;-78
2021/05/05 05:42:49;;;;;;;0.17;0.17;;;8.00;99.90;;;;;;5054543;28;20664;-78
2021/05/05 05:45:18;;;;;;;0.10;0.10;;;8.00;99.90;;;;;;5053833;28;20163;-80
2021/05/05 05:47:44;;;;;;;0.20;0.10;;;8.10;99.90;;;;;;5052263;28;20288;-78
2021/05/05 05:50:12;;;;;;;0.10;0.10;;;8.20;99.90;;;;;;5047848;28;20171;-77
2021/05/05 05:52:38;;;;;;;0.10;0.10;;;8.20;99.90;;;;;;5052860;28;20213;-77
2021/05/05 05:55:06;;;;;;;0.10;0.10;;;8.10;99.90;;;;;;5052928;28;20176;-77
2021/05/05 05:57:32;;;;;;;0.10;0.10;;;8.00;99.90;;;;;;5053271;28;20200;-76
2021/05/05 05:59:58;;;;;;;0.10;0.10;;;8.00;99.90;;;;;;5044114;28;20168;-76
2021/05/05 06:02:23;;;;;;;0.10;0.10;;;8.00;99.90;;;;;;5032759;28;20728;-77
2021/05/05 06:04:49;;;;;;;1.10;0.20;;;8.10;99.90;;;;;;5031156;28;20192;-78
2021/05/05 06:07:15;;;;;;;0.10;0.10;;;8.20;99.90;;;;;;5034322;28;20167;-81
2021/05/05 06:09:41;;;;;;;0.20;0.10;;;8.20;99.90;;;;;;5034322;28;20669;-75
2021/05/05 06:12:07;;;;;;;0.10;0.10;;;8.10;99.90;;;;;;5043994;28;20230;-76
2021/05/05 06:14:33;;;;;;;0.30;0.30;;;8.00;99.90;;;;;;5054287;28;20269;-76
2021/05/05 06:16:59;;;;;;;0.37;0.30;;;8.00;99.90;;;;;;5054256;28;20230;-76
2021/05/05 06:19:25;;;;;;;0.20;0.20;;;8.00;99.90;;;;;;5055877;28;20173;-78
2021/05/05 06:21:51;;;;;;;0.30;0.20;;;8.00;99.90;;;;;;5059983;28;20228;-78
2021/05/05 06:24:17;;;;;;;0.30;0.30;;;7.90;99.90;;;;;;5057251;28;20245;-77
2021/05/05 06:26:43;;;;;;;0.27;0.27;;;7.90;99.90;;;;;;5056688;28;20692;-77
2021/05/05 06:29:09;;;;;;;0.70;0.30;;;7.90;99.90;;;;;;5057232;28;20181;-77
2021/05/05 06:31:39;;;;;;;0.57;0.23;;;7.90;99.90;;;;;;5031800;28;20684;-77
2021/05/05 06:34:04;;;;;;;0.70;0.20;;;8.00;99.90;;;;;;5057233;28;20174;-76
2021/05/05 06:36:31;;;;;;;0.30;0.30;;;8.10;99.90;;;;;;5044229;28;20214;-76
2021/05/05 06:38:57;;;;;;;0.37;0.27;;;8.00;99.90;;;;;;5056606;28;20173;-76
2021/05/05 06:41:22;;;;;;;1.03;0.20;;;8.00;99.90;;;;;;5056468;28;20210;-75
2021/05/05 06:43:48;;;;;;;0.70;0.30;;;8.00;99.90;;;;;;5040526;28;20206;-76
2021/05/05 06:46:14;;;;;;;0.30;0.30;;;8.10;99.90;;;;;;5014034;28;20616;-76
2021/05/05 06:48:40;;;;;;;0.73;0.23;;;8.00;99.90;;;;;;5053498;28;20239;-76
2021/05/05 06:51:06;;;;;;;0.53;0.30;;;8.00;99.90;;;;;;5052556;28;20655;-76
2021/05/05 06:53:32;;;;;;;0.20;0.20;;;8.00;99.90;;;;;;5049267;28;20207;-76
2021/05/05 06:55:57;;;;;;;0.40;0.30;;;7.90;99.90;;;;;;5038537;28;20283;-76
2021/05/05 06:58:23;;;;;;;0.40;0.30;;;8.00;99.90;;;;;;5054274;28;20183;-76
2021/05/05 07:00:49;;;;;;;0.97;0.30;;;8.00;99.90;;;;;;5045945;28;20202;-75
2021/05/05 07:03:15;;;;;;;1.23;0.20;;;8.00;99.90;;;;;;5031451;28;20286;-76
2021/05/05 07:05:41;;;;;;;0.30;0.30;;;8.10;99.90;;;;;;5049893;28;20332;-75
2021/05/05 07:08:07;;;;;;;0.30;0.30;;;8.00;99.90;;;;;;5037998;28;20200;-76
2021/05/05 07:10:34;;;;;;;0.30;0.30;;;8.20;99.90;;;;;;5027759;28;20193;-76
2021/05/05 07:12:59;;;;;;;0.60;0.40;;;8.10;99.90;;;;;;5035997;28;20575;-76
2021/05/05 07:15:25;;;;;;;0.40;0.40;;;8.30;99.90;;;;;;5055983;28;20178;-76
2021/05/05 07:17:52;;;;;;;0.90;0.60;;;8.30;99.90;;;;;;5040825;28;20204;-77
2021/05/05 07:20:18;;;;;;;1.03;0.50;;;8.20;99.90;;;;;;5033903;28;20259;-76
2021/05/05 07:22:44;;;;;;;0.40;0.40;;;8.20;99.90;;;;;;5032365;28;20202;-75
2021/05/05 07:25:10;;;;;;;1.07;0.30;;;8.10;99.90;;;;;;5043437;28;20177;-76
2021/05/05 07:27:37;;;;;;;0.30;0.30;;;8.20;99.90;;;;;;5053777;28;20170;-76
2021/05/05 07:30:04;;;;;;;0.40;0.40;;;8.40;99.90;;;;;;5036356;28;20164;-77
2021/05/05 07:32:30;;;;;;;0.80;0.50;;;8.40;99.90;;;;;;5047963;28;20204;-77
2021/05/05 07:34:57;;;;;;;0.40;0.40;;;8.30;99.90;;;;;;5055451;28;20179;-77
2021/05/05 07:38:16;;;;;;;0.67;0.47;;;8.40;99.90;;;;;;5055570;28;20586;-76
2021/05/05 07:45:50;;;;;;;1.30;0.60;;;8.10;99.90;;;;;;5055961;28;20177;-76
2021/05/05 07:48:39;;;;;;;0.30;0.30;;;8.10;99.90;;;;;;5055596;28;20164;-75
2021/05/05 07:51:04;;;;;;;1.57;0.40;;;8.20;99.90;;;;;;5055187;28;20167;-76
2021/05/05 07:53:30;;;;;;;0.47;0.47;;;8.30;99.90;;;;;;5037281;28;20664;-76
2021/05/05 07:55:58;;;;;;;0.67;0.50;;;8.20;99.90;;;;;;5055706;28;20247;-76
2021/05/05 07:58:24;;;;;;;0.63;0.50;;;8.10;99.90;;;;;;5021166;28;20179;-77
2021/05/05 08:00:50;;;;;;;0.70;0.57;;;8.20;99.90;;;;;;5054951;28;20194;-76
2021/05/05 08:03:16;;;;;;;0.50;0.50;;;8.30;99.90;;;;;;5055245;28;20202;-76
2021/05/05 08:05:42;;;;;;;0.40;0.40;;;8.30;99.90;;;;;;5037223;28;20175;-76
2021/05/05 08:08:07;;;;;;;0.70;0.40;;;8.30;99.90;;;;;;5037032;28;20594;-76
2021/05/05 08:10:33;;;;;;;1.20;0.70;;;8.30;99.90;;;;;;5037045;28;20176;-76
2021/05/05 08:12:59;;;;;;;1.70;0.70;;;8.40;99.90;;;;;;5036960;28;20199;-76
2021/05/05 08:15:27;;;;;;;1.47;0.67;;;8.30;99.90;;;;;;5055112;28;20186;-76
2021/05/05 08:17:52;;;;;;;0.90;0.80;;;8.40;99.90;;;;;;5054691;28;20182;-76
2021/05/05 08:20:18;;;;;;;0.73;0.70;;;8.40;99.90;;;;;;5054598;28;20201;-76
2021/05/05 08:22:45;;;;;;;2.50;0.83;;;8.40;99.90;;;;;;5054462;28;20281;-76
2021/05/05 08:25:11;;;;;;;1.63;0.80;;;8.50;99.90;;;;;;5054659;28;20210;-77
2021/05/05 08:27:37;;;;;;;1.63;0.70;;;8.60;99.90;;;;;;5054574;28;20164;-76
2021/05/05 08:30:04;;;;;;;2.07;0.90;;;8.80;99.90;;;;;;5054520;28;20248;-76
2021/05/05 08:32:30;;;;;;;1.27;0.90;;;8.90;99.90;;;;;;5046675;28;20190;-76
2021/05/05 08:34:55;;;;;;;2.87;0.90;;;9.00;99.90;;;;;;5036357;28;20251;-76
2021/05/05 08:37:21;;;;;;;0.90;0.80;;;8.90;99.90;;;;;;5036473;28;20186;-76
2021/05/05 08:39:47;;;;;;;2.87;0.80;;;9.10;99.90;;;;;;5054241;28;20189;-76
2021/05/05 08:42:15;;;;;;;2.83;1.00;;;9.10;99.90;;;;;;5053204;28;20207;-75
2021/05/05 08:44:45;;;;;;;1.90;1.00;;;9.20;99.90;;;;;;5054242;28;20256;-75
2021/05/05 08:47:11;;;;;;;2.50;1.10;;;9.30;99.90;;;;;;5054434;28;20168;-76
2021/05/05 08:49:37;;;;;;;1.50;1.00;;;9.30;99.90;;;;;;5054212;28;20533;-76
2021/05/05 08:52:02;;;;;;;3.17;1.03;;;9.40;99.90;;;;;;5035112;28;20311;-73
2021/05/05 08:54:28;;;;;;;2.33;0.90;;;9.60;99.90;;;;;;5007538;28;20262;-74
2021/05/05 08:56:54;;;;;;;2.40;0.90;;;9.60;99.90;;;;;;5016440;28;20265;-73
2021/05/05 08:59:20;;;;;;;3.13;1.13;;;9.50;99.90;;;;;;5022478;28;20264;-73
2021/05/05 09:01:46;;;;;;;3.00;1.00;;;9.40;99.90;;;;;;5033587;28;20214;-73
2021/05/05 09:04:12;;;;;;;4.13;1.03;;;9.40;99.90;;;;;;5022019;28;20188;-73
2021/05/05 09:06:50;;;;;;;2.57;0.90;;;9.30;99.90;;;;;;5029099;28;20261;-72
2021/05/05 09:09:40;;;;;;;1.97;0.80;;;9.30;99.90;;;;;;5035965;28;20222;-73
2021/05/05 09:12:24;;;;;;;2.27;1.20;;;9.40;99.90;;;;;;5017797;28;20213;-75
2021/05/05 09:14:59;;;;;;;1.43;0.90;;;9.50;99.90;;;;;;5027902;28;20163;-73
2021/05/05 09:17:29;;;;;;;1.60;0.90;;;9.70;99.90;;;;;;5030539;28;20234;-74
2021/05/05 09:20:13;;;;;;;3.03;1.03;;;9.80;99.90;;;;;;5051750;28;20181;-74
2021/05/05 09:22:44;;;;;;;3.47;0.90;;;10.20;99.90;;;;;;5038817;28;20197;-74
2021/05/05 09:25:13;;;;;;;2.73;1.00;;;10.20;99.90;;;;;;5018591;28;20204;-74
2021/05/05 09:27:40;;;;;;;2.13;0.93;;;10.10;99.90;;;;;;5024463;28;20673;-74
2021/05/05 09:30:22;;;;;;;2.77;0.77;;;9.90;99.90;;;;;;5021307;28;20609;-75
2021/05/05 09:32:51;;;;;;;1.90;0.93;;;9.80;99.90;;;;;;5019029;28;20193;-73
2021/05/05 09:35:17;;;;;;;3.83;0.70;;;9.70;99.90;;;;;;5020531;28;20176;-72
2021/05/05 09:37:55;;;;;;;4.33;0.90;;;9.70;99.90;;;;;;5016496;28;20178;-72
2021/05/05 09:40:20;;;;;;;3.53;1.10;;;9.80;99.90;;;;;;5035678;28;20181;-74
2021/05/05 09:42:46;;;;;;;3.43;1.00;;;9.60;99.90;;;;;;5035370;28;20194;-72
2021/05/05 09:45:12;;;;;;;2.47;0.83;;;9.50;99.90;;;;;;5053168;28;20172;-73
2021/05/05 09:47:45;;;;;;;2.40;0.80;;;9.60;99.90;;;;;;5033632;28;20172;-73
2021/05/05 09:50:36;;;;;;;4.73;0.83;;;9.90;99.90;;;;;;5053142;28;20221;-73
2021/05/05 09:53:29;;;;;;;3.63;0.97;;;10.10;99.90;;;;;;5035061;28;20234;-73
2021/05/05 09:55:58;;;;;;;2.03;0.77;;;10.30;99.90;;;;;;5053299;28;20172;-73
2021/05/05 09:58:42;;;;;;;1.80;0.90;;;10.40;99.90;;;;;;5053010;28;20174;-73
2021/05/05 10:01:10;;;;;;;3.10;0.90;;;10.80;99.90;;;;;;5052801;28;20189;-73
2021/05/05 10:03:38;;;;;;;2.83;0.73;;;10.90;99.90;;;;;;5053229;28;20172;-73
2021/05/05 10:06:40;;;;;;;1.77;0.70;;;11.10;99.90;;;;;;5032184;28;20228;-73
2021/05/05 10:09:10;;;;;;;2.80;0.83;;;11.50;99.90;;;;;;5005660;28;20211;-73
2021/05/05 10:11:40;;;;;;;1.40;0.77;;;11.70;99.90;;;;;;5052584;28;20202;-73
2021/05/05 10:14:14;;;;;;;2.13;0.80;;;11.60;99.90;;;;;;5052992;28;20617;-73
2021/05/05 10:16:44;;;;;;;1.83;0.70;;;11.60;99.90;;;;;;5035098;28;20180;-73
2021/05/05 10:19:26;;;;;;;2.43;0.80;;;11.70;99.90;;;;;;5052939;28;20639;-74
2021/05/05 10:21:55;;;;;;;3.30;0.80;;;11.70;99.90;;;;;;5052967;28;20354;-73
2021/05/05 10:24:26;;;;;;;1.53;0.70;;;11.40;99.90;;;;;;5034973;28;20173;-73
2021/05/05 10:26:52;;;;;;;2.50;0.80;;;11.30;99.90;;;;;;5053159;28;20235;-73
2021/05/05 10:29:19;;;;;;;2.17;0.87;;;11.20;99.90;;;;;;5053058;28;20640;-74
2021/05/05 10:31:51;;;;;;;2.57;0.77;;;11.40;99.90;;;;;;5045016;28;20188;-75
2021/05/05 10:34:28;;;;;;;1.67;0.70;;;11.50;99.90;;;;;;5026266;28;20249;-74
2021/05/05 10:36:56;;;;;;;3.20;0.80;;;11.60;99.90;;;;;;5031008;28;20197;-75
2021/05/05 10:39:22;;;;;;;2.03;0.90;;;11.40;99.90;;;;;;5019325;28;20381;-74
2021/05/05 10:42:00;;;;;;;2.80;0.83;;;11.40;99.90;;;;;;5027180;28;20209;-73
2021/05/05 10:44:35;;;;;;;3.77;0.90;;;11.70;99.90;;;;;;5027406;28;20244;-75
2021/05/05 10:47:17;;;;;;;5.03;1.17;;;12.10;99.90;;;;;;5025860;28;20542;-75
2021/05/05 10:50:07;;;;;;;4.30;0.80;;;12.30;99.90;;;;;;5031653;28;20174;-74
2021/05/05 10:52:47;;;;;;;3.77;1.10;;;12.10;99.90;;;;;;5036982;28;20213;-74
2021/05/05 10:55:15;;;;;;;2.30;0.97;;;12.20;99.90;;;;;;5029187;28;20240;-75
2021/05/05 10:58:09;;;;;;;1.90;1.00;;;12.30;99.90;;;;;;5024202;28;20236;-74
2021/05/05 11:01:05;;;;;;;0.90;0.70;;;12.20;99.90;;;;;;5031768;28;20728;-77
2021/05/05 11:03:52;;;;;;;1.80;0.80;;;12.00;99.90;;;;;;5021969;28;20277;-74
2021/05/05 11:06:33;;;;;;;2.53;0.80;;;11.60;99.90;;;;;;5031012;28;20659;-74
2021/05/05 11:11:41;;;;;;;2.23;0.77;;;11.90;99.90;;;;;;5033758;28;20201;-74
2021/05/05 11:14:08;;;;;;;6.73;1.33;;;11.70;99.90;;;;;;5037233;28;20673;-73
2021/05/05 11:16:55;;;;;;;59.23;3.83;;;11.50;99.90;;;;;;5015074;28;20177;-75
2021/05/05 11:19:53;;;;;;;2.80;0.90;;;11.30;99.90;;;;;;5030422;28;20249;-74
2021/05/05 11:22:19;;;;;;;1.13;0.73;;;11.50;99.90;;;;;;4989861;28;20231;-74
2021/05/05 11:24:46;;;;;;;1.67;0.90;;;11.40;99.90;;;;;;5029381;28;20675;-75
2021/05/05 11:27:15;;;;;;;2.93;0.83;;;11.50;99.90;;;;;;5030738;28;20185;-75
2021/05/05 11:29:43;;;;;;;1.20;0.67;;;11.70;99.90;;;;;;5031562;28;20185;-75
2021/05/05 11:32:13;;;;;;;2.57;0.70;;;11.80;99.90;;;;;;5046694;28;20184;-76
2021/05/05 11:34:41;;;;;;;8.50;0.80;;;11.90;99.90;;;;;;5049153;28;20173;-76
2021/05/05 11:37:12;;;;;;;1.67;0.80;;;12.00;99.90;;;;;;5036622;28;20172;-75
2021/05/05 11:39:43;;;;;;;1.37;0.80;;;12.00;99.90;;;;;;5055075;28;20546;-74
2021/05/05 11:42:13;;;;;;;2.33;1.00;;;12.20;99.90;;;;;;5055643;28;20201;-74
2021/05/05 11:44:43;;;;;;;1.87;0.97;;;12.20;99.90;;;;;;5055466;28;20190;-74
2021/05/05 11:47:14;;;;;;;1.20;0.70;;;12.30;99.90;;;;;;5041279;28;20173;-73
2021/05/05 11:49:42;;;;;;;2.60;0.80;;;12.10;99.90;;;;;;5037452;28;20217;-74
2021/05/05 11:52:26;;;;;;;1.33;0.67;;;12.40;99.90;;;;;;5055145;28;20320;-73
2021/05/05 11:55:13;;;;;;;2.83;0.60;;;12.20;99.90;;;;;;5055259;28;20181;-73
2021/05/05 11:57:47;;;;;;;2.33;0.80;;;12.20;99.90;;;;;;5054854;28;20173;-74
2021/05/05 12:00:15;;;;;;;1.47;0.77;;;12.20;98.70;;;;;;5018206;28;20181;-74
2021/05/05 12:02:53;;;;;;;1.67;0.60;;;12.50;98.50;;;;;;5051400;28;20250;-76
2021/05/05 12:05:28;;;;;;;4.37;0.90;;;12.60;99.90;;;;;;5046342;28;20173;-74
2021/05/05 12:08:15;;;;;;;4.80;0.83;;;12.90;99.90;;;;;;5054942;28;20253;-74
2021/05/05 12:10:44;;;;;;;2.67;0.73;;;12.90;99.10;;;;;;5054838;28;20188;-74
2021/05/05 12:13:39;;;;;;;0.80;0.60;;;12.60;98.40;;;;;;5055222;28;20280;-74
2021/05/05 12:16:15;;;;;;;5.07;0.60;;;12.50;98.80;;;;;;5052683;28;20176;-74
2021/05/05 12:18:45;;;;;;;2.27;0.87;;;12.80;99.90;;;;;;5043641;28;20226;-75
2021/05/05 12:21:16;;;;;;;1.63;0.97;;;13.00;99.20;;;;;;5054145;28;20718;-74
2021/05/05 12:23:42;;;;;;;2.97;0.70;;;13.30;99.90;;;;;;5024719;28;20182;-74
2021/05/05 12:26:19;;;;;;;1.23;0.73;;;13.50;98.30;;;;;;5049306;28;20662;-74
2021/05/05 12:28:47;;;;;;;1.47;0.60;;;13.20;98.70;;;;;;5054922;28;20635;-74
2021/05/05 12:31:20;;;;;;;2.63;0.90;;;13.40;98.30;;;;;;5040286;28;20236;-74
2021/05/05 12:33:47;;;;;;;2.00;0.70;;;13.60;99.10;;;;;;5036332;28;20692;-76
2021/05/05 12:36:16;;;;;;;2.50;0.70;;;13.30;96.70;;;;;;5038033;28;20647;-74
2021/05/05 12:38:45;;;;;;;4.07;0.97;;;13.20;96.60;;;;;;5053603;28;20174;-75
2021/05/05 12:41:24;;;;;;;1.53;0.60;;;13.40;98.10;;;;;;5054379;28;20225;-73
2021/05/05 12:43:57;;;;;;;1.43;0.57;;;13.50;99.80;;;;;;5040091;28;20324;-73
2021/05/05 12:46:32;;;;;;;1.90;0.57;;;13.50;96.60;;;;;;5052394;28;20201;-73
2021/05/05 12:48:58;;;;;;;3.23;0.80;;;13.30;97.70;;;;;;5045949;28;20189;-74
2021/05/05 12:51:26;;;;;;;1.33;0.50;;;13.40;97.50;;;;;;5054152;28;20201;-74
2021/05/05 12:53:58;;;;;;;1.93;0.70;;;13.50;97.40;;;;;;5049197;28;20178;-75
2021/05/05 12:56:39;;;;;;;1.07;0.60;;;13.30;95.10;;;;;;5050870;28;20231;-74
2021/05/05 12:59:05;;;;;;;2.90;0.67;;;13.10;94.80;;;;;;5053942;28;20554;-73
2021/05/05 13:01:31;;;;;;;2.63;1.03;;;13.10;96.20;;;;;;5053795;28;20236;-73
2021/05/05 13:03:57;;;;;;;1.30;0.67;;;13.00;95.20;;;;;;5053871;28;20172;-73
2021/05/05 13:06:43;;;;;;;2.60;0.88;;;13.10;98.10;;;;;;5049779;28;20403;-74
2021/05/05 13:09:13;;;;;;;1.40;0.80;;;13.50;97.10;;;;;;5048252;28;20184;-74